Scroll down
FLIGHT INFORMATION
Sky Gates Airlines

SAY815

At Arrival Gate

EDDS
 ENGM
DATE: 2020-08-15
GATE:  -
GATE DEPARTURE: 14:58
TAKEOFF: 15:01
DATE: 2020-08-15
GATE:  -
LANDING: 16:55
GATE ARRIVAL: 16:59
FLIGHT DATA
Crew: 
Speed: 
507 kts
Altitude: 
38,007 ft
Stage Length: 
694.2 nm
Block Time: 
2 hrs
Flight Time: 
1.9 hrs
Fuel Used: 
45,149 lb
Cleared Route: EDDS OKIBA ROLSO RIMKI LOHRE ARNIX FUL MASEK KEMAD PIBUL MEGAR SABAK XENTA REGMA LUNIP ENGM
TRACK DATA
50,000 ft 1,000 kts
AIRCRAFT INFO AND CUMULATIVE STATS
Aircraft Type: 
B744F
Registration: 
SELCAL: 
MSN/LN: 
32571 / 1271
Operator: 
Total Flights: 
6
Total Block Time: 
14.2 hrs
Total Flight Time: 
13 hrs
Total Fuel Time: 
298,369 lb
DATALINK LOG | Newest first | Current as of: 2020-11-27 20:34:31
LABEL SEQUENCE CONTENT Dn/Up
QD171016:59 53.7▼ Dn
QC130716:55▼ Dn
5R3229MEGAR 15:49z FL380 SABAK 16:17z XENTA M0.84 33.1 -55 / RW19L 16:53z▼ Dn
2U1124ENGM 151820Z 19009KT CAVOK 21/16 Q1015 NOSIG▲ Up
2S2825ENGM▼ Dn
GA2725ADVANCED GATE ASSIGNMENTS NOT YET AVAILABLE AT THIS AIRPORT▲ Up
GR2725ENGM 16:53 MAAS YP/UM WCHR/S/C HI-VAL NO DIPL/VIP NO▼ Dn
5R4942KEMAD 15:23z FL379 PIBUL 15:48z MEGAR M0.84 37.0 -55 / RW19L 16:53z▼ Dn
DM484841KEMAD 15:23z FL379 PIBUL 15:48z MEGAR M0.84 37.0 -55 / RW19L 16:53z▼ Dn
5R3832KEMAD 15:23z FL379 PIBUL 15:48z MEGAR M0.84 37.0 -56 / RW19L 16:53z▼ Dn
QB050115:01▼ Dn
QA015814:58 98.8▼ Dn
A33038CLEARED TO ENGM VIA OKIB4H OKIBA N851 RIMKI LOHRE UN851 KEMAD PIBUL P605 MEGAR SABAK L997 LUNIP LUNI4M. SQUAWK .▲ Up
B33028EDDS ENGM SAY815 VPBCI ▼ Dn
2U2059ENGM 151350Z 16010KT CAVOK 23/17 Q1015 NOSIG▲ Up
2U2056EDDS 151350Z 03004KT 300V100 9999 SCT054TCU 29/14 Q1014 NOSIG▲ Up
2S2322ENGM▼ Dn
2S2322EDDS▼ Dn
A72321CLEARANCE AVAIL WITHIN 0:25 OF EDT▲ Up
B32321EDDS ENGM SAY815 VPBCI ▼ Dn
Q01917[LINK ACK]▲ Up
Q01917[LINK TEST]▼ Dn


AIRCRAFT HISTORY
FLIGHT DATE FLIGHT NO. ORIGIN DESTINATION CLEARED ROUTE BLOCK TIME FLIGHT TIME FUEL USED PILOT
2020-08-15SAY815EDDS ENGM EDDS OKIBA ROLSO RIMKI LOHRE ARNIX FUL MASEK KEMAD PIBUL MEGAR SABAK XENTA REGMA LUNIP ENGM2 hrs1.9 hrs45,149 lbMarc Ehnle
2020-07-25SAY725UUEE EDDS UUEE BG TU SUPEK TEGLU LEGSI BENIM RAMBE LAFAT UPASI VABER SUW KULEK MAGAN IDEXU GOVEN BUKIG KOBUS BEBKU PIKIB ABKIS NOKSI PEROX NURGO URONA UNAVI KULOK ERETO ANELA KEGOS AMOSA ODEGU DKB GEBNO EDDS3 hrs2.8 hrs62,392 lbMarc Ehnle
2020-03-14SAY306LIRF UUEE LIRF TIBER INTUD GOTMO IBENI IPKIS KOPRY SUNOR DEMOP PODAN ODRAP USTIL AMIRI PNK OGARA TAZIP DELON NASKA REKTA DEDOK SODKO ABKOM PASUD MOSON KOMOG RUBAG GUBON FK UUEE3.1 hrs2.8 hrs74,216 lbRobert S. Randazzo
2019-03-18SAY317ESSA LIRF ESSA NOSLI TONSA ABAMA MOKNI NEMBA DEKIK ETPIG ELVIX BIKRU RAKIT MAREM PEMEL RUDAP BARIX BAMTA DEGIN DOSEL TULSI BERAS MIMVI LIZUM LIKDA VESAL GAVRA RITEB LIRF3.5 hrs3 hrs60,302 lbAaron Buchanan
2019-03-13SAY312EFHK ESSA EFHK ADIVO PEPIG POGOK RUNGA XILAN ESSA1.2 hrs0.8 hrs18,577 lbAaron Buchanan
2019-03-03SAY302UUDD EFHK UUDD LO GOTMA ARSEP UM AR BELAG OLIDI GAPSA ROMEL KUDIM GUBIT PIKAM ATBUR ORTOK NOTAR SUMIM ULKOX BIRSI LEMLA GEPTA INTOR EFHK1.8 hrs1.6 hrs37,734 lbAaron Buchanan